sensor_id;sensor_type;location;lat;lon;timestamp;temperature;humidity
16999;DHT22;10211;49.476;11.010;2022-10-16T00:01:15;15.30;99.90
16999;DHT22;10211;49.476;11.010;2022-10-16T00:03:44;15.30;99.90
16999;DHT22;10211;49.476;11.010;2022-10-16T00:06:11;15.30;99.90
16999;DHT22;10211;49.476;11.010;2022-10-16T00:08:40;15.30;99.90
16999;DHT22;10211;49.476;11.010;2022-10-16T00:11:09;15.20;99.90
16999;DHT22;10211;49.476;11.010;2022-10-16T00:13:37;15.20;99.90
16999;DHT22;10211;49.476;11.010;2022-10-16T00:16:05;15.20;99.90
16999;DHT22;10211;49.476;11.010;2022-10-16T00:18:32;15.20;99.90
16999;DHT22;10211;49.476;11.010;2022-10-16T00:21:04;15.20;99.90
16999;DHT22;10211;49.476;11.010;2022-10-16T00:23:32;15.20;99.90
16999;DHT22;10211;49.476;11.010;2022-10-16T00:26:02;15.20;99.90
16999;DHT22;10211;49.476;11.010;2022-10-16T00:28:29;15.20;99.90
16999;DHT22;10211;49.476;11.010;2022-10-16T00:30:56;15.20;99.90
16999;DHT22;10211;49.476;11.010;2022-10-16T00:33:23;15.20;99.90
16999;DHT22;10211;49.476;11.010;2022-10-16T00:35:50;15.20;99.90
16999;DHT22;10211;49.476;11.010;2022-10-16T00:38:23;15.20;99.90
16999;DHT22;10211;49.476;11.010;2022-10-16T00:40:50;15.20;99.90
16999;DHT22;10211;49.476;11.010;2022-10-16T00:46:16;15.20;99.90
16999;DHT22;10211;49.476;11.010;2022-10-16T00:48:48;15.20;99.90
16999;DHT22;10211;49.476;11.010;2022-10-16T00:51:18;15.20;99.90
16999;DHT22;10211;49.476;11.010;2022-10-16T00:53:46;15.20;99.90
16999;DHT22;10211;49.476;11.010;2022-10-16T00:56:13;15.20;99.90
16999;DHT22;10211;49.476;11.010;2022-10-16T00:58:40;15.20;99.90
16999;DHT22;10211;49.476;11.010;2022-10-16T01:01:07;15.20;99.90
16999;DHT22;10211;49.476;11.010;2022-10-16T01:03:36;15.10;99.90
16999;DHT22;10211;49.476;11.010;2022-10-16T01:06:11;15.10;99.90
16999;DHT22;10211;49.476;11.010;2022-10-16T01:08:50;15.10;99.90
16999;DHT22;10211;49.476;11.010;2022-10-16T01:11:22;15.10;99.90
16999;DHT22;10211;49.476;11.010;2022-10-16T01:13:55;15.10;99.90
16999;DHT22;10211;49.476;11.010;2022-10-16T01:16:30;15.10;99.90
16999;DHT22;10211;49.476;11.010;2022-10-16T01:19:06;15.10;99.90
16999;DHT22;10211;49.476;11.010;2022-10-16T01:21:38;15.10;99.90
16999;DHT22;10211;49.476;11.010;2022-10-16T01:24:11;15.10;99.90
16999;DHT22;10211;49.476;11.010;2022-10-16T01:27:02;15.10;99.90
16999;DHT22;10211;49.476;11.010;2022-10-16T01:29:33;15.00;99.90
16999;DHT22;10211;49.476;11.010;2022-10-16T01:32:10;15.00;99.90
16999;DHT22;10211;49.476;11.010;2022-10-16T01:34:43;15.00;99.90
16999;DHT22;10211;49.476;11.010;2022-10-16T01:37:15;15.00;99.90
16999;DHT22;10211;49.476;11.010;2022-10-16T01:39:45;15.00;99.90
16999;DHT22;10211;49.476;11.010;2022-10-16T01:42:20;15.10;99.90
16999;DHT22;10211;49.476;11.010;2022-10-16T01:44:48;15.00;99.90
16999;DHT22;10211;49.476;11.010;2022-10-16T01:47:16;15.00;99.90
16999;DHT22;10211;49.476;11.010;2022-10-16T01:49:45;15.00;99.90
16999;DHT22;10211;49.476;11.010;2022-10-16T01:52:14;15.00;99.90
16999;DHT22;10211;49.476;11.010;2022-10-16T01:54:43;15.00;99.90
16999;DHT22;10211;49.476;11.010;2022-10-16T01:57:13;15.00;99.90
16999;DHT22;10211;49.476;11.010;2022-10-16T01:59:45;15.00;99.90
16999;DHT22;10211;49.476;11.010;2022-10-16T02:02:13;15.00;99.90
16999;DHT22;10211;49.476;11.010;2022-10-16T02:04:45;15.10;99.90
16999;DHT22;10211;49.476;11.010;2022-10-16T02:07:13;15.00;99.90
16999;DHT22;10211;49.476;11.010;2022-10-16T02:09:40;15.10;99.90
16999;DHT22;10211;49.476;11.010;2022-10-16T02:12:12;15.10;99.90
16999;DHT22;10211;49.476;11.010;2022-10-16T02:14:42;15.10;99.90
16999;DHT22;10211;49.476;11.010;2022-10-16T02:17:13;15.10;99.90
16999;DHT22;10211;49.476;11.010;2022-10-16T02:19:40;15.20;99.90
16999;DHT22;10211;49.476;11.010;2022-10-16T02:22:10;15.30;99.90
16999;DHT22;10211;49.476;11.010;2022-10-16T02:24:45;15.20;99.90
16999;DHT22;10211;49.476;11.010;2022-10-16T02:27:17;15.20;99.90
16999;DHT22;10211;49.476;11.010;2022-10-16T02:29:52;15.10;99.90
16999;DHT22;10211;49.476;11.010;2022-10-16T02:32:28;15.20;99.90
16999;DHT22;10211;49.476;11.010;2022-10-16T02:34:58;15.10;99.90
16999;DHT22;10211;49.476;11.010;2022-10-16T02:37:26;15.10;99.90
16999;DHT22;10211;49.476;11.010;2022-10-16T02:39:54;15.20;99.90
16999;DHT22;10211;49.476;11.010;2022-10-16T02:42:28;15.20;99.90
16999;DHT22;10211;49.476;11.010;2022-10-16T02:44:56;15.20;99.90
16999;DHT22;10211;49.476;11.010;2022-10-16T02:47:23;15.10;99.90
16999;DHT22;10211;49.476;11.010;2022-10-16T02:49:50;15.20;99.90
16999;DHT22;10211;49.476;11.010;2022-10-16T02:52:19;15.10;99.90
16999;DHT22;10211;49.476;11.010;2022-10-16T02:54:45;15.10;99.90
16999;DHT22;10211;49.476;11.010;2022-10-16T02:57:14;15.20;99.90
16999;DHT22;10211;49.476;11.010;2022-10-16T02:59:41;15.20;99.90
16999;DHT22;10211;49.476;11.010;2022-10-16T03:02:09;15.10;99.90
16999;DHT22;10211;49.476;11.010;2022-10-16T03:04:36;15.00;99.90
16999;DHT22;10211;49.476;11.010;2022-10-16T03:07:03;14.90;99.90
16999;DHT22;10211;49.476;11.010;2022-10-16T03:09:30;14.90;99.90
16999;DHT22;10211;49.476;11.010;2022-10-16T03:11:57;15.00;99.90
16999;DHT22;10211;49.476;11.010;2022-10-16T03:14:24;14.90;99.90
16999;DHT22;10211;49.476;11.010;2022-10-16T03:16:51;14.80;99.90
16999;DHT22;10211;49.476;11.010;2022-10-16T03:19:19;14.80;99.90
16999;DHT22;10211;49.476;11.010;2022-10-16T03:21:46;14.80;99.90
16999;DHT22;10211;49.476;11.010;2022-10-16T03:24:13;14.70;99.90
16999;DHT22;10211;49.476;11.010;2022-10-16T03:26:40;14.70;99.90
16999;DHT22;10211;49.476;11.010;2022-10-16T03:29:07;14.80;99.90
16999;DHT22;10211;49.476;11.010;2022-10-16T03:31:35;14.60;99.90
16999;DHT22;10211;49.476;11.010;2022-10-16T03:34:01;14.60;99.90
16999;DHT22;10211;49.476;11.010;2022-10-16T03:36:29;14.60;99.90
16999;DHT22;10211;49.476;11.010;2022-10-16T03:38:56;14.60;99.90
16999;DHT22;10211;49.476;11.010;2022-10-16T03:41:23;14.60;99.90
16999;DHT22;10211;49.476;11.010;2022-10-16T03:43:50;14.50;99.90
16999;DHT22;10211;49.476;11.010;2022-10-16T03:46:17;14.50;99.90
16999;DHT22;10211;49.476;11.010;2022-10-16T03:48:43;14.40;99.90
16999;DHT22;10211;49.476;11.010;2022-10-16T03:51:10;14.40;99.90
16999;DHT22;10211;49.476;11.010;2022-10-16T03:53:38;14.50;99.90
16999;DHT22;10211;49.476;11.010;2022-10-16T03:56:05;14.50;99.90
16999;DHT22;10211;49.476;11.010;2022-10-16T03:58:32;14.40;99.90
16999;DHT22;10211;49.476;11.010;2022-10-16T04:00:59;14.30;99.90
16999;DHT22;10211;49.476;11.010;2022-10-16T04:03:26;14.40;99.90
16999;DHT22;10211;49.476;11.010;2022-10-16T04:05:53;14.30;99.90
16999;DHT22;10211;49.476;11.010;2022-10-16T04:08:20;14.50;99.90
16999;DHT22;10211;49.476;11.010;2022-10-16T04:10:48;14.40;99.90
16999;DHT22;10211;49.476;11.010;2022-10-16T04:13:16;14.60;99.90
16999;DHT22;10211;49.476;11.010;2022-10-16T04:15:44;14.40;99.90
16999;DHT22;10211;49.476;11.010;2022-10-16T04:18:11;14.50;99.90
16999;DHT22;10211;49.476;11.010;2022-10-16T04:20:38;14.50;99.90
16999;DHT22;10211;49.476;11.010;2022-10-16T04:23:05;14.50;99.90
16999;DHT22;10211;49.476;11.010;2022-10-16T04:25:32;14.50;99.90
16999;DHT22;10211;49.476;11.010;2022-10-16T04:28:00;14.50;99.90
16999;DHT22;10211;49.476;11.010;2022-10-16T04:30:27;14.50;99.90
16999;DHT22;10211;49.476;11.010;2022-10-16T04:32:55;14.50;99.90
16999;DHT22;10211;49.476;11.010;2022-10-16T04:35:21;14.60;99.90
16999;DHT22;10211;49.476;11.010;2022-10-16T04:37:48;14.50;99.90
16999;DHT22;10211;49.476;11.010;2022-10-16T04:40:16;14.50;99.90
16999;DHT22;10211;49.476;11.010;2022-10-16T04:42:42;14.50;99.90
16999;DHT22;10211;49.476;11.010;2022-10-16T04:45:11;14.50;99.90
16999;DHT22;10211;49.476;11.010;2022-10-16T04:47:37;14.40;99.90
16999;DHT22;10211;49.476;11.010;2022-10-16T04:50:05;14.50;99.90
16999;DHT22;10211;49.476;11.010;2022-10-16T04:52:32;14.50;99.90
16999;DHT22;10211;49.476;11.010;2022-10-16T04:54:59;14.40;99.90
16999;DHT22;10211;49.476;11.010;2022-10-16T04:57:29;14.50;99.90
16999;DHT22;10211;49.476;11.010;2022-10-16T04:59:56;14.50;99.90
16999;DHT22;10211;49.476;11.010;2022-10-16T05:02:24;14.50;99.90
16999;DHT22;10211;49.476;11.010;2022-10-16T05:04:51;14.50;99.90
16999;DHT22;10211;49.476;11.010;2022-10-16T05:07:18;14.50;99.90
16999;DHT22;10211;49.476;11.010;2022-10-16T05:09:45;14.50;99.90
16999;DHT22;10211;49.476;11.010;2022-10-16T05:12:11;14.50;99.90
16999;DHT22;10211;49.476;11.010;2022-10-16T05:14:40;14.40;99.90
16999;DHT22;10211;49.476;11.010;2022-10-16T05:17:06;14.50;99.90
16999;DHT22;10211;49.476;11.010;2022-10-16T05:19:35;14.40;99.90
16999;DHT22;10211;49.476;11.010;2022-10-16T05:22:01;14.40;99.90
16999;DHT22;10211;49.476;11.010;2022-10-16T05:24:28;14.40;99.90
16999;DHT22;10211;49.476;11.010;2022-10-16T05:26:55;14.30;99.90
16999;DHT22;10211;49.476;11.010;2022-10-16T05:29:22;14.30;99.90
16999;DHT22;10211;49.476;11.010;2022-10-16T05:31:51;14.30;99.90
16999;DHT22;10211;49.476;11.010;2022-10-16T05:34:18;14.30;99.90
16999;DHT22;10211;49.476;11.010;2022-10-16T05:36:47;14.20;99.90
16999;DHT22;10211;49.476;11.010;2022-10-16T05:39:14;14.30;99.90
16999;DHT22;10211;49.476;11.010;2022-10-16T05:41:41;14.20;99.90
16999;DHT22;10211;49.476;11.010;2022-10-16T05:44:10;14.30;99.90
16999;DHT22;10211;49.476;11.010;2022-10-16T05:46:37;14.30;99.90
16999;DHT22;10211;49.476;11.010;2022-10-16T05:49:04;14.30;99.90
16999;DHT22;10211;49.476;11.010;2022-10-16T05:51:30;14.30;99.90
16999;DHT22;10211;49.476;11.010;2022-10-16T05:53:59;14.30;99.90
16999;DHT22;10211;49.476;11.010;2022-10-16T05:56:26;14.30;99.90
16999;DHT22;10211;49.476;11.010;2022-10-16T05:58:54;14.40;99.90
16999;DHT22;10211;49.476;11.010;2022-10-16T06:01:21;14.40;99.90
16999;DHT22;10211;49.476;11.010;2022-10-16T06:03:49;14.40;99.90
16999;DHT22;10211;49.476;11.010;2022-10-16T06:06:18;14.40;99.90
16999;DHT22;10211;49.476;11.010;2022-10-16T06:08:47;14.40;99.90
16999;DHT22;10211;49.476;11.010;2022-10-16T06:11:37;14.50;99.90
16999;DHT22;10211;49.476;11.010;2022-10-16T06:14:04;14.50;99.90
16999;DHT22;10211;49.476;11.010;2022-10-16T06:16:34;14.50;99.90
16999;DHT22;10211;49.476;11.010;2022-10-16T06:19:03;14.50;99.90
16999;DHT22;10211;49.476;11.010;2022-10-16T06:21:32;14.60;99.90
16999;DHT22;10211;49.476;11.010;2022-10-16T06:23:59;14.60;99.90
16999;DHT22;10211;49.476;11.010;2022-10-16T06:26:27;14.70;99.90
16999;DHT22;10211;49.476;11.010;2022-10-16T06:28:57;14.70;99.90
16999;DHT22;10211;49.476;11.010;2022-10-16T06:31:24;14.70;99.90
16999;DHT22;10211;49.476;11.010;2022-10-16T06:33:53;14.70;99.90
16999;DHT22;10211;49.476;11.010;2022-10-16T06:36:20;14.80;99.90
16999;DHT22;10211;49.476;11.010;2022-10-16T06:38:48;14.70;99.90
16999;DHT22;10211;49.476;11.010;2022-10-16T06:41:17;14.80;99.90
16999;DHT22;10211;49.476;11.010;2022-10-16T06:43:45;14.90;99.90
16999;DHT22;10211;49.476;11.010;2022-10-16T06:46:15;15.00;99.90
16999;DHT22;10211;49.476;11.010;2022-10-16T06:48:42;15.00;99.90
16999;DHT22;10211;49.476;11.010;2022-10-16T06:51:10;15.00;99.90
16999;DHT22;10211;49.476;11.010;2022-10-16T06:53:39;15.10;99.90
16999;DHT22;10211;49.476;11.010;2022-10-16T06:56:07;15.10;99.90
16999;DHT22;10211;49.476;11.010;2022-10-16T06:58:34;15.10;99.90
16999;DHT22;10211;49.476;11.010;2022-10-16T07:01:02;15.10;99.90
16999;DHT22;10211;49.476;11.010;2022-10-16T07:03:30;15.00;99.90
16999;DHT22;10211;49.476;11.010;2022-10-16T07:05:57;15.00;99.90
16999;DHT22;10211;49.476;11.010;2022-10-16T07:08:27;15.00;99.90
16999;DHT22;10211;49.476;11.010;2022-10-16T07:10:59;15.10;99.90
16999;DHT22;10211;49.476;11.010;2022-10-16T07:13:26;15.10;99.90
16999;DHT22;10211;49.476;11.010;2022-10-16T07:15:52;15.10;99.90
16999;DHT22;10211;49.476;11.010;2022-10-16T07:18:21;15.20;99.90
16999;DHT22;10211;49.476;11.010;2022-10-16T07:20:53;15.20;99.90
16999;DHT22;10211;49.476;11.010;2022-10-16T07:23:20;15.30;99.90
16999;DHT22;10211;49.476;11.010;2022-10-16T07:25:53;15.30;99.90
16999;DHT22;10211;49.476;11.010;2022-10-16T07:28:21;15.40;99.90
16999;DHT22;10211;49.476;11.010;2022-10-16T07:30:48;15.30;99.90
16999;DHT22;10211;49.476;11.010;2022-10-16T07:33:15;15.30;99.90
16999;DHT22;10211;49.476;11.010;2022-10-16T07:35:48;15.40;99.90
16999;DHT22;10211;49.476;11.010;2022-10-16T07:38:17;15.50;99.90
16999;DHT22;10211;49.476;11.010;2022-10-16T07:40:44;15.60;99.90
16999;DHT22;10211;49.476;11.010;2022-10-16T07:43:11;15.60;99.90
16999;DHT22;10211;49.476;11.010;2022-10-16T07:45:45;15.50;99.90
16999;DHT22;10211;49.476;11.010;2022-10-16T07:48:15;15.60;99.90
16999;DHT22;10211;49.476;11.010;2022-10-16T07:50:42;15.60;99.90
16999;DHT22;10211;49.476;11.010;2022-10-16T07:53:09;15.70;99.90
16999;DHT22;10211;49.476;11.010;2022-10-16T07:55:39;15.80;99.90
16999;DHT22;10211;49.476;11.010;2022-10-16T07:58:07;15.80;99.90
16999;DHT22;10211;49.476;11.010;2022-10-16T08:00:35;16.00;99.90
16999;DHT22;10211;49.476;11.010;2022-10-16T08:03:02;16.10;99.90
16999;DHT22;10211;49.476;11.010;2022-10-16T08:08:51;16.30;99.90
16999;DHT22;10211;49.476;11.010;2022-10-16T08:11:20;16.30;99.90
16999;DHT22;10211;49.476;11.010;2022-10-16T08:13:47;16.40;99.90
16999;DHT22;10211;49.476;11.010;2022-10-16T08:16:16;16.40;99.90
16999;DHT22;10211;49.476;11.010;2022-10-16T08:18:46;16.30;99.90
16999;DHT22;10211;49.476;11.010;2022-10-16T08:21:18;16.30;99.90
16999;DHT22;10211;49.476;11.010;2022-10-16T08:23:45;16.20;99.90
16999;DHT22;10211;49.476;11.010;2022-10-16T08:26:14;16.30;99.90
16999;DHT22;10211;49.476;11.010;2022-10-16T08:28:42;16.30;99.90
16999;DHT22;10211;49.476;11.010;2022-10-16T08:31:15;16.40;99.90
16999;DHT22;10211;49.476;11.010;2022-10-16T08:33:43;16.50;99.90
16999;DHT22;10211;49.476;11.010;2022-10-16T08:36:12;16.60;99.90
16999;DHT22;10211;49.476;11.010;2022-10-16T08:38:39;16.90;99.90
16999;DHT22;10211;49.476;11.010;2022-10-16T08:41:20;16.90;99.90
16999;DHT22;10211;49.476;11.010;2022-10-16T08:44:18;17.20;99.90
16999;DHT22;10211;49.476;11.010;2022-10-16T08:46:53;17.50;99.90
16999;DHT22;10211;49.476;11.010;2022-10-16T08:49:26;17.70;99.90
16999;DHT22;10211;49.476;11.010;2022-10-16T08:51:53;17.90;99.90
16999;DHT22;10211;49.476;11.010;2022-10-16T08:54:28;18.20;99.90
16999;DHT22;10211;49.476;11.010;2022-10-16T08:56:56;18.30;99.90
16999;DHT22;10211;49.476;11.010;2022-10-16T08:59:24;18.50;99.90
16999;DHT22;10211;49.476;11.010;2022-10-16T09:01:52;18.60;99.90
16999;DHT22;10211;49.476;11.010;2022-10-16T09:04:43;18.70;99.90
16999;DHT22;10211;49.476;11.010;2022-10-16T09:07:18;18.90;99.90
16999;DHT22;10211;49.476;11.010;2022-10-16T09:09:58;19.10;99.90
16999;DHT22;10211;49.476;11.010;2022-10-16T09:12:31;19.30;99.90
16999;DHT22;10211;49.476;11.010;2022-10-16T09:15:12;19.60;99.90
16999;DHT22;10211;49.476;11.010;2022-10-16T09:17:48;19.90;99.90
16999;DHT22;10211;49.476;11.010;2022-10-16T09:20:22;20.10;99.90
16999;DHT22;10211;49.476;11.010;2022-10-16T09:22:55;20.30;99.90
16999;DHT22;10211;49.476;11.010;2022-10-16T09:25:27;20.40;99.90
16999;DHT22;10211;49.476;11.010;2022-10-16T09:27:55;20.30;99.90
16999;DHT22;10211;49.476;11.010;2022-10-16T09:30:26;20.00;99.90
16999;DHT22;10211;49.476;11.010;2022-10-16T09:32:55;19.80;99.90
16999;DHT22;10211;49.476;11.010;2022-10-16T09:35:31;19.60;99.90
16999;DHT22;10211;49.476;11.010;2022-10-16T09:37:58;19.40;99.90
16999;DHT22;10211;49.476;11.010;2022-10-16T09:40:26;19.30;99.90
16999;DHT22;10211;49.476;11.010;2022-10-16T09:43:01;19.10;99.90
16999;DHT22;10211;49.476;11.010;2022-10-16T09:45:30;18.90;99.90
16999;DHT22;10211;49.476;11.010;2022-10-16T09:47:57;18.60;99.90
16999;DHT22;10211;49.476;11.010;2022-10-16T09:50:25;18.50;99.90
16999;DHT22;10211;49.476;11.010;2022-10-16T09:53:04;18.40;99.90
16999;DHT22;10211;49.476;11.010;2022-10-16T09:55:33;18.30;99.90
16999;DHT22;10211;49.476;11.010;2022-10-16T09:58:00;18.30;99.90
16999;DHT22;10211;49.476;11.010;2022-10-16T10:00:27;18.30;99.90
16999;DHT22;10211;49.476;11.010;2022-10-16T10:02:58;18.30;99.90
16999;DHT22;10211;49.476;11.010;2022-10-16T10:05:26;18.40;99.90
16999;DHT22;10211;49.476;11.010;2022-10-16T10:07:56;18.50;99.90
16999;DHT22;10211;49.476;11.010;2022-10-16T10:10:25;18.80;99.90
16999;DHT22;10211;49.476;11.010;2022-10-16T10:12:53;18.90;99.90
16999;DHT22;10211;49.476;11.010;2022-10-16T10:15:21;19.30;99.90
16999;DHT22;10211;49.476;11.010;2022-10-16T10:17:52;19.70;99.90
16999;DHT22;10211;49.476;11.010;2022-10-16T10:20:25;20.30;99.90
16999;DHT22;10211;49.476;11.010;2022-10-16T10:22:53;20.80;99.90
16999;DHT22;10211;49.476;11.010;2022-10-16T10:25:44;21.10;99.90
16999;DHT22;10211;49.476;11.010;2022-10-16T10:28:28;21.30;99.90
16999;DHT22;10211;49.476;11.010;2022-10-16T10:31:03;21.40;99.90
16999;DHT22;10211;49.476;11.010;2022-10-16T10:33:41;21.50;99.90
16999;DHT22;10211;49.476;11.010;2022-10-16T10:36:20;21.70;99.90
16999;DHT22;10211;49.476;11.010;2022-10-16T10:38:51;21.60;99.90
16999;DHT22;10211;49.476;11.010;2022-10-16T10:47:24;21.90;99.90
16999;DHT22;10211;49.476;11.010;2022-10-16T10:50:00;22.00;99.90
16999;DHT22;10211;49.476;11.010;2022-10-16T10:52:42;22.10;99.90
16999;DHT22;10211;49.476;11.010;2022-10-16T10:55:21;22.10;99.90
16999;DHT22;10211;49.476;11.010;2022-10-16T10:58:04;22.10;99.90
16999;DHT22;10211;49.476;11.010;2022-10-16T11:00:42;22.10;99.90
16999;DHT22;10211;49.476;11.010;2022-10-16T11:03:25;22.10;99.90
16999;DHT22;10211;49.476;11.010;2022-10-16T11:05:56;22.20;99.90
16999;DHT22;10211;49.476;11.010;2022-10-16T11:08:31;22.30;99.90
16999;DHT22;10211;49.476;11.010;2022-10-16T11:11:01;22.10;99.90
16999;DHT22;10211;49.476;11.010;2022-10-16T11:13:32;22.00;99.90
16999;DHT22;10211;49.476;11.010;2022-10-16T11:16:11;22.10;99.90
16999;DHT22;10211;49.476;11.010;2022-10-16T11:18:45;22.00;99.90
16999;DHT22;10211;49.476;11.010;2022-10-16T11:21:14;22.10;99.90
16999;DHT22;10211;49.476;11.010;2022-10-16T11:23:48;22.20;99.90
16999;DHT22;10211;49.476;11.010;2022-10-16T11:26:20;22.50;99.90
16999;DHT22;10211;49.476;11.010;2022-10-16T11:28:49;22.80;99.90
16999;DHT22;10211;49.476;11.010;2022-10-16T11:31:25;22.80;99.90
16999;DHT22;10211;49.476;11.010;2022-10-16T11:33:59;23.00;99.90
16999;DHT22;10211;49.476;11.010;2022-10-16T11:36:34;23.00;99.90
16999;DHT22;10211;49.476;11.010;2022-10-16T11:39:11;23.10;99.90
16999;DHT22;10211;49.476;11.010;2022-10-16T11:41:45;23.20;99.90
16999;DHT22;10211;49.476;11.010;2022-10-16T11:44:22;23.40;99.90
16999;DHT22;10211;49.476;11.010;2022-10-16T11:47:01;23.60;99.90
16999;DHT22;10211;49.476;11.010;2022-10-16T11:49:33;23.90;99.90
16999;DHT22;10211;49.476;11.010;2022-10-16T11:52:07;24.30;99.90
16999;DHT22;10211;49.476;11.010;2022-10-16T11:54:47;24.70;99.90
16999;DHT22;10211;49.476;11.010;2022-10-16T11:57:19;25.00;99.90
16999;DHT22;10211;49.476;11.010;2022-10-16T11:59:51;25.10;99.90
16999;DHT22;10211;49.476;11.010;2022-10-16T12:02:37;25.00;99.90
16999;DHT22;10211;49.476;11.010;2022-10-16T12:05:18;25.10;99.90
16999;DHT22;10211;49.476;11.010;2022-10-16T12:07:51;25.20;99.90
16999;DHT22;10211;49.476;11.010;2022-10-16T12:10:24;25.30;99.90
16999;DHT22;10211;49.476;11.010;2022-10-16T12:12:52;25.50;99.90
16999;DHT22;10211;49.476;11.010;2022-10-16T12:15:22;25.10;99.90
16999;DHT22;10211;49.476;11.010;2022-10-16T12:17:49;24.70;99.90
16999;DHT22;10211;49.476;11.010;2022-10-16T12:20:27;24.40;99.90
16999;DHT22;10211;49.476;11.010;2022-10-16T12:22:57;24.00;99.90
16999;DHT22;10211;49.476;11.010;2022-10-16T12:25:28;23.60;99.90
16999;DHT22;10211;49.476;11.010;2022-10-16T12:28:01;23.30;99.90
16999;DHT22;10211;49.476;11.010;2022-10-16T12:30:30;23.10;99.90
16999;DHT22;10211;49.476;11.010;2022-10-16T12:32:58;22.90;99.90
16999;DHT22;10211;49.476;11.010;2022-10-16T12:35:28;22.70;99.90
16999;DHT22;10211;49.476;11.010;2022-10-16T12:38:05;22.60;99.90
16999;DHT22;10211;49.476;11.010;2022-10-16T12:40:35;22.50;99.90
16999;DHT22;10211;49.476;11.010;2022-10-16T12:43:12;22.70;99.90
16999;DHT22;10211;49.476;11.010;2022-10-16T12:46:00;22.80;99.90
16999;DHT22;10211;49.476;11.010;2022-10-16T12:48:27;22.90;99.90
16999;DHT22;10211;49.476;11.010;2022-10-16T12:50:53;23.10;99.90
16999;DHT22;10211;49.476;11.010;2022-10-16T12:53:23;23.30;99.90
16999;DHT22;10211;49.476;11.010;2022-10-16T12:55:59;23.50;99.90
16999;DHT22;10211;49.476;11.010;2022-10-16T12:58:41;23.70;99.90
16999;DHT22;10211;49.476;11.010;2022-10-16T13:01:21;23.80;99.90
16999;DHT22;10211;49.476;11.010;2022-10-16T13:04:14;24.00;99.90
16999;DHT22;10211;49.476;11.010;2022-10-16T13:06:51;24.00;99.90
16999;DHT22;10211;49.476;11.010;2022-10-16T13:09:46;23.90;99.90
16999;DHT22;10211;49.476;11.010;2022-10-16T13:15:22;23.80;99.90
16999;DHT22;10211;49.476;11.010;2022-10-16T13:17:59;25.00;99.90
16999;DHT22;10211;49.476;11.010;2022-10-16T13:20:33;26.90;99.90
16999;DHT22;10211;49.476;11.010;2022-10-16T13:23:07;28.10;96.60
16999;DHT22;10211;49.476;11.010;2022-10-16T13:25:48;28.50;94.80
16999;DHT22;10211;49.476;11.010;2022-10-16T13:28:22;28.50;94.10
16999;DHT22;10211;49.476;11.010;2022-10-16T13:30:56;27.90;93.50
16999;DHT22;10211;49.476;11.010;2022-10-16T13:33:30;27.30;94.50
16999;DHT22;10211;49.476;11.010;2022-10-16T13:35:58;26.70;95.60
16999;DHT22;10211;49.476;11.010;2022-10-16T13:38:26;26.20;96.50
16999;DHT22;10211;49.476;11.010;2022-10-16T13:40:55;25.70;97.20
16999;DHT22;10211;49.476;11.010;2022-10-16T13:43:26;25.40;98.10
16999;DHT22;10211;49.476;11.010;2022-10-16T13:45:59;25.50;98.40
16999;DHT22;10211;49.476;11.010;2022-10-16T13:48:27;26.10;98.10
16999;DHT22;10211;49.476;11.010;2022-10-16T13:51:03;26.70;96.60
16999;DHT22;10211;49.476;11.010;2022-10-16T13:53:32;27.00;96.30
16999;DHT22;10211;49.476;11.010;2022-10-16T13:55:59;27.00;95.80
16999;DHT22;10211;49.476;11.010;2022-10-16T13:58:28;26.60;94.70
16999;DHT22;10211;49.476;11.010;2022-10-16T14:00:56;26.30;94.80
16999;DHT22;10211;49.476;11.010;2022-10-16T14:03:25;26.00;95.80
16999;DHT22;10211;49.476;11.010;2022-10-16T14:05:54;25.60;95.40
16999;DHT22;10211;49.476;11.010;2022-10-16T14:08:22;25.20;95.00
16999;DHT22;10211;49.476;11.010;2022-10-16T14:10:52;24.80;95.10
16999;DHT22;10211;49.476;11.010;2022-10-16T14:13:28;24.50;95.70
16999;DHT22;10211;49.476;11.010;2022-10-16T14:15:58;24.20;97.10
16999;DHT22;10211;49.476;11.010;2022-10-16T14:18:27;23.80;98.20
16999;DHT22;10211;49.476;11.010;2022-10-16T14:20:55;23.60;98.40
16999;DHT22;10211;49.476;11.010;2022-10-16T14:23:30;23.40;99.20
16999;DHT22;10211;49.476;11.010;2022-10-16T14:26:11;23.30;99.90
16999;DHT22;10211;49.476;11.010;2022-10-16T14:28:40;23.00;99.90
16999;DHT22;10211;49.476;11.010;2022-10-16T14:31:30;22.90;99.90
16999;DHT22;10211;49.476;11.010;2022-10-16T14:33:57;22.80;99.90
16999;DHT22;10211;49.476;11.010;2022-10-16T14:36:25;22.60;99.90
16999;DHT22;10211;49.476;11.010;2022-10-16T14:39:01;22.40;99.90
16999;DHT22;10211;49.476;11.010;2022-10-16T14:41:29;22.10;99.90
16999;DHT22;10211;49.476;11.010;2022-10-16T14:44:00;22.00;99.90
16999;DHT22;10211;49.476;11.010;2022-10-16T14:46:34;21.80;99.90
16999;DHT22;10211;49.476;11.010;2022-10-16T14:49:17;21.70;99.90
16999;DHT22;10211;49.476;11.010;2022-10-16T14:51:45;21.70;99.90
16999;DHT22;10211;49.476;11.010;2022-10-16T14:54:13;21.60;99.90
16999;DHT22;10211;49.476;11.010;2022-10-16T14:56:47;21.60;99.90
16999;DHT22;10211;49.476;11.010;2022-10-16T14:59:17;21.70;99.90
16999;DHT22;10211;49.476;11.010;2022-10-16T15:01:48;21.60;99.90
16999;DHT22;10211;49.476;11.010;2022-10-16T15:04:15;21.70;99.90
16999;DHT22;10211;49.476;11.010;2022-10-16T15:06:43;21.70;99.90
16999;DHT22;10211;49.476;11.010;2022-10-16T15:09:10;21.70;99.90
16999;DHT22;10211;49.476;11.010;2022-10-16T15:11:37;21.70;99.90
16999;DHT22;10211;49.476;11.010;2022-10-16T15:14:05;21.70;99.90
16999;DHT22;10211;49.476;11.010;2022-10-16T15:16:32;21.60;99.90
16999;DHT22;10211;49.476;11.010;2022-10-16T15:19:00;21.50;99.90
16999;DHT22;10211;49.476;11.010;2022-10-16T15:21:28;21.70;99.90
16999;DHT22;10211;49.476;11.010;2022-10-16T15:23:56;21.40;99.90
16999;DHT22;10211;49.476;11.010;2022-10-16T15:26:23;21.20;99.90
16999;DHT22;10211;49.476;11.010;2022-10-16T15:28:50;21.10;99.90
16999;DHT22;10211;49.476;11.010;2022-10-16T15:31:17;21.00;99.90
16999;DHT22;10211;49.476;11.010;2022-10-16T15:33:43;20.90;99.90
16999;DHT22;10211;49.476;11.010;2022-10-16T15:36:14;20.80;99.90
16999;DHT22;10211;49.476;11.010;2022-10-16T15:38:41;20.70;99.90
16999;DHT22;10211;49.476;11.010;2022-10-16T15:41:12;20.60;99.90
16999;DHT22;10211;49.476;11.010;2022-10-16T15:43:39;20.60;99.90
16999;DHT22;10211;49.476;11.010;2022-10-16T15:46:08;20.50;99.90
16999;DHT22;10211;49.476;11.010;2022-10-16T15:48:39;20.50;99.90
16999;DHT22;10211;49.476;11.010;2022-10-16T15:51:07;20.40;99.90